sensor_id;sensor_type;location;lat;lon;timestamp;pressure;altitude;pressure_sealevel;temperature;humidity
37298;BME280;30517;51.932;4.278;2023-04-06T00:01:03;101813.63;;;11.73;58.54
37298;BME280;30517;51.932;4.278;2023-04-06T00:03:43;101821.53;;;11.74;58.65
37298;BME280;30517;51.932;4.278;2023-04-06T00:06:24;101795.00;;;11.61;58.19
37298;BME280;30517;51.932;4.278;2023-04-06T00:09:05;101795.94;;;11.66;58.59
37298;BME280;30517;51.932;4.278;2023-04-06T00:11:46;101806.50;;;11.66;58.16
37298;BME280;30517;51.932;4.278;2023-04-06T00:14:27;101794.13;;;11.59;58.36
37298;BME280;30517;51.932;4.278;2023-04-06T00:17:08;101810.03;;;11.65;58.26
37298;BME280;30517;51.932;4.278;2023-04-06T00:19:49;101803.88;;;11.64;58.48
37298;BME280;30517;51.932;4.278;2023-04-06T00:22:30;101802.09;;;11.65;58.52
37298;BME280;30517;51.932;4.278;2023-04-06T00:25:11;101787.06;;;11.58;58.25
37298;BME280;30517;51.932;4.278;2023-04-06T00:27:52;101788.00;;;11.61;58.18
37298;BME280;30517;51.932;4.278;2023-04-06T00:30:32;101781.78;;;11.59;58.01
37298;BME280;30517;51.932;4.278;2023-04-06T00:33:13;101772.03;;;11.50;57.97
37298;BME280;30517;51.932;4.278;2023-04-06T00:35:54;101783.50;;;11.56;58.33
37298;BME280;30517;51.932;4.278;2023-04-06T00:38:35;101758.72;;;11.41;58.78
37298;BME280;30517;51.932;4.278;2023-04-06T00:41:17;101772.91;;;11.52;58.39
37298;BME280;30517;51.932;4.278;2023-04-06T00:43:58;101726.03;;;11.27;58.69
37298;BME280;30517;51.932;4.278;2023-04-06T00:46:39;101741.06;;;11.36;58.04
37298;BME280;30517;51.932;4.278;2023-04-06T00:49:20;101751.72;;;11.46;58.18
37298;BME280;30517;51.932;4.278;2023-04-06T00:52:01;101764.00;;;11.41;58.70
37298;BME280;30517;51.932;4.278;2023-04-06T00:54:42;101716.31;;;11.23;58.50
37298;BME280;30517;51.932;4.278;2023-04-06T00:57:23;101742.00;;;11.41;58.76
37298;BME280;30517;51.932;4.278;2023-04-06T01:00:05;101732.22;;;11.29;58.22
37298;BME280;30517;51.932;4.278;2023-04-06T01:02:46;101754.31;;;11.37;58.77
37298;BME280;30517;51.932;4.278;2023-04-06T01:05:28;101733.16;;;11.34;58.12
37298;BME280;30517;51.932;4.278;2023-04-06T01:08:09;101724.22;;;11.21;59.06
37298;BME280;30517;51.932;4.278;2023-04-06T01:10:50;101737.53;;;11.32;58.47
37298;BME280;30517;51.932;4.278;2023-04-06T01:13:31;101730.44;;;11.28;58.62
37298;BME280;30517;51.932;4.278;2023-04-06T01:16:12;101715.44;;;11.21;58.74
37298;BME280;30517;51.932;4.278;2023-04-06T01:18:53;101729.53;;;11.26;58.94
37298;BME280;30517;51.932;4.278;2023-04-06T01:21:34;101701.28;;;11.16;59.12
37298;BME280;30517;51.932;4.278;2023-04-06T01:24:15;101719.84;;;11.25;58.90
37298;BME280;30517;51.932;4.278;2023-04-06T01:26:56;101716.31;;;11.23;58.86
37298;BME280;30517;51.932;4.278;2023-04-06T01:29:36;101691.53;;;11.08;58.57
37298;BME280;30517;51.932;4.278;2023-04-06T01:32:17;101707.50;;;11.21;58.83
37298;BME280;30517;51.932;4.278;2023-04-06T01:34:58;101688.97;;;11.16;58.81
37298;BME280;30517;51.932;4.278;2023-04-06T01:37:39;101683.66;;;11.13;59.10
37298;BME280;30517;51.932;4.278;2023-04-06T01:40:20;101696.00;;;11.17;59.10
37298;BME280;30517;51.932;4.278;2023-04-06T01:43:01;101657.94;;;10.92;58.80
37298;BME280;30517;51.932;4.278;2023-04-06T01:45:41;101691.59;;;11.15;59.19
37298;BME280;30517;51.932;4.278;2023-04-06T01:48:23;101679.22;;;11.12;59.02
37298;BME280;30517;51.932;4.278;2023-04-06T01:51:03;101673.03;;;11.05;58.97
37298;BME280;30517;51.932;4.278;2023-04-06T01:53:44;101680.13;;;11.11;58.67
37298;BME280;30517;51.932;4.278;2023-04-06T01:56:25;101673.97;;;11.11;59.19
37298;BME280;30517;51.932;4.278;2023-04-06T01:59:06;101674.81;;;11.10;58.54
37298;BME280;30517;51.932;4.278;2023-04-06T02:01:47;101673.94;;;11.07;58.69
37298;BME280;30517;51.932;4.278;2023-04-06T02:04:28;101662.41;;;11.01;58.81
37298;BME280;30517;51.932;4.278;2023-04-06T02:07:09;101644.75;;;10.92;58.71
37298;BME280;30517;51.932;4.278;2023-04-06T02:09:54;101637.66;;;10.88;58.73
37298;BME280;30517;51.932;4.278;2023-04-06T02:12:35;101644.78;;;10.95;59.20
37298;BME280;30517;51.932;4.278;2023-04-06T02:15:16;101657.16;;;11.02;59.02
37298;BME280;30517;51.932;4.278;2023-04-06T02:17:57;101657.13;;;11.01;58.66
37298;BME280;30517;51.932;4.278;2023-04-06T02:20:37;101655.38;;;11.00;59.27
37298;BME280;30517;51.932;4.278;2023-04-06T02:23:18;101645.66;;;10.96;58.71
37298;BME280;30517;51.932;4.278;2023-04-06T02:25:59;101651.88;;;10.99;59.01
37298;BME280;30517;51.932;4.278;2023-04-06T02:28:40;101650.97;;;10.97;58.73
37298;BME280;30517;51.932;4.278;2023-04-06T02:31:21;101650.06;;;10.95;58.81
37298;BME280;30517;51.932;4.278;2023-04-06T02:34:02;101631.50;;;10.86;58.83
37298;BME280;30517;51.932;4.278;2023-04-06T02:36:46;101627.06;;;10.80;58.74
37298;BME280;30517;51.932;4.278;2023-04-06T02:39:27;101635.94;;;10.93;59.02
37298;BME280;30517;51.932;4.278;2023-04-06T02:42:08;101638.56;;;10.90;58.93
37298;BME280;30517;51.932;4.278;2023-04-06T02:44:49;101628.84;;;10.84;59.30
37298;BME280;30517;51.932;4.278;2023-04-06T02:47:29;101623.50;;;10.80;59.04
37298;BME280;30517;51.932;4.278;2023-04-06T02:50:10;101615.59;;;10.80;59.08
37298;BME280;30517;51.932;4.278;2023-04-06T02:52:52;101632.41;;;10.90;58.93
37298;BME280;30517;51.932;4.278;2023-04-06T02:55:33;101632.38;;;10.88;58.77
37298;BME280;30517;51.932;4.278;2023-04-06T02:58:14;101630.63;;;10.87;58.67
37298;BME280;30517;51.932;4.278;2023-04-06T03:00:55;101624.44;;;10.85;58.65
37298;BME280;30517;51.932;4.278;2023-04-06T03:03:36;101613.84;;;10.79;58.69
37298;BME280;30517;51.932;4.278;2023-04-06T03:06:16;101594.34;;;10.63;58.30
37298;BME280;30517;51.932;4.278;2023-04-06T03:08:57;101601.41;;;10.69;58.59
37298;BME280;30517;51.932;4.278;2023-04-06T03:11:38;101615.59;;;10.78;58.54
37298;BME280;30517;51.932;4.278;2023-04-06T03:14:19;101620.00;;;10.79;58.45
37298;BME280;30517;51.932;4.278;2023-04-06T03:17:01;101585.50;;;10.59;58.51
37298;BME280;30517;51.932;4.278;2023-04-06T03:19:42;101606.72;;;10.72;58.61
37298;BME280;30517;51.932;4.278;2023-04-06T03:22:23;101612.94;;;10.77;58.63
37298;BME280;30517;51.932;4.278;2023-04-06T03:25:04;101605.88;;;10.73;58.65
37298;BME280;30517;51.932;4.278;2023-04-06T03:27:45;101610.25;;;10.74;59.09
37298;BME280;30517;51.932;4.278;2023-04-06T03:30:26;101595.25;;;10.65;58.79
37298;BME280;30517;51.932;4.278;2023-04-06T03:33:06;101597.91;;;10.67;59.20
37298;BME280;30517;51.932;4.278;2023-04-06T03:35:47;101611.13;;;10.71;58.55
37298;BME280;30517;51.932;4.278;2023-04-06T03:38:36;101597.03;;;10.69;58.73
37298;BME280;30517;51.932;4.278;2023-04-06T03:41:26;101552.84;;;10.45;58.69
37298;BME280;30517;51.932;4.278;2023-04-06T03:44:06;101579.34;;;10.56;59.01
37298;BME280;30517;51.932;4.278;2023-04-06T03:46:47;101595.28;;;10.67;58.91
37298;BME280;30517;51.932;4.278;2023-04-06T03:49:28;101595.28;;;10.67;59.11
37298;BME280;30517;51.932;4.278;2023-04-06T03:52:09;101597.84;;;10.63;58.66
37298;BME280;30517;51.932;4.278;2023-04-06T03:54:49;101601.41;;;10.64;59.26
37298;BME280;30517;51.932;4.278;2023-04-06T03:57:30;101595.22;;;10.62;59.12
37298;BME280;30517;51.932;4.278;2023-04-06T04:00:12;101589.06;;;10.61;58.69
37298;BME280;30517;51.932;4.278;2023-04-06T04:02:53;101594.34;;;10.61;59.29
37298;BME280;30517;51.932;4.278;2023-04-06T04:05:33;101589.94;;;10.62;58.71
37298;BME280;30517;51.932;4.278;2023-04-06T04:08:14;101592.56;;;10.60;58.94
37298;BME280;30517;51.932;4.278;2023-04-06T04:10:55;101589.91;;;10.59;59.09
37298;BME280;30517;51.932;4.278;2023-04-06T04:13:36;101589.88;;;10.57;59.36
37298;BME280;30517;51.932;4.278;2023-04-06T04:16:17;101587.25;;;10.57;59.06
37298;BME280;30517;51.932;4.278;2023-04-06T04:18:58;101584.63;;;10.56;59.12
37298;BME280;30517;51.932;4.278;2023-04-06T04:21:45;101581.91;;;10.51;59.54
37298;BME280;30517;51.932;4.278;2023-04-06T04:24:26;101581.03;;;10.52;58.77
37298;BME280;30517;51.932;4.278;2023-04-06T04:27:07;101572.13;;;10.41;58.82
37298;BME280;30517;51.932;4.278;2023-04-06T04:29:48;101594.25;;;10.54;58.82
37298;BME280;30517;51.932;4.278;2023-04-06T04:34:32;101588.22;;;10.67;55.99
37298;BME280;30517;51.932;4.278;2023-04-06T04:37:13;101536.91;;;10.33;56.22
37298;BME280;30517;51.932;4.278;2023-04-06T04:39:54;101599.63;;;10.61;56.73
37298;BME280;30517;51.932;4.278;2023-04-06T04:42:34;101590.78;;;10.56;56.89
37298;BME280;30517;51.932;4.278;2023-04-06T04:45:15;101597.78;;;10.54;57.22
37298;BME280;30517;51.932;4.278;2023-04-06T04:47:56;101558.91;;;10.35;57.91
37298;BME280;30517;51.932;4.278;2023-04-06T04:50:37;101578.31;;;10.43;58.09
37298;BME280;30517;51.932;4.278;2023-04-06T04:53:18;101587.13;;;10.44;58.20
37298;BME280;30517;51.932;4.278;2023-04-06T04:55:59;101590.66;;;10.47;58.55
37298;BME280;30517;51.932;4.278;2023-04-06T04:58:40;101570.34;;;10.35;58.76
37298;BME280;30517;51.932;4.278;2023-04-06T05:01:20;101588.03;;;10.46;58.45
37298;BME280;30517;51.932;4.278;2023-04-06T05:04:01;101576.50;;;10.39;58.70
37298;BME280;30517;51.932;4.278;2023-04-06T05:06:42;101562.34;;;10.28;58.66
37298;BME280;30517;51.932;4.278;2023-04-06T05:09:23;101588.88;;;10.45;59.17
37298;BME280;30517;51.932;4.278;2023-04-06T05:12:04;101584.47;;;10.44;58.75
37298;BME280;30517;51.932;4.278;2023-04-06T05:14:45;101594.16;;;10.45;58.81
37298;BME280;30517;51.932;4.278;2023-04-06T05:17:26;101585.34;;;10.44;58.77
37298;BME280;30517;51.932;4.278;2023-04-06T05:20:07;101579.19;;;10.44;59.23
37298;BME280;30517;51.932;4.278;2023-04-06T05:22:48;101565.94;;;10.36;58.78
37298;BME280;30517;51.932;4.278;2023-04-06T05:25:29;101580.97;;;10.43;58.51
37298;BME280;30517;51.932;4.278;2023-04-06T05:28:10;101587.09;;;10.42;59.25
37298;BME280;30517;51.932;4.278;2023-04-06T05:30:50;101565.94;;;10.36;58.97
37298;BME280;30517;51.932;4.278;2023-04-06T05:33:32;101559.78;;;10.35;58.91
37298;BME280;30517;51.932;4.278;2023-04-06T05:36:12;101580.06;;;10.41;58.95
37298;BME280;30517;51.932;4.278;2023-04-06T05:38:53;101521.75;;;10.16;59.01
37298;BME280;30517;51.932;4.278;2023-04-06T05:41:35;101580.94;;;10.41;58.75
37298;BME280;30517;51.932;4.278;2023-04-06T05:44:16;101580.94;;;10.41;59.00
37298;BME280;30517;51.932;4.278;2023-04-06T05:46:57;101568.63;;;10.40;58.86
37298;BME280;30517;51.932;4.278;2023-04-06T05:49:38;101521.72;;;10.10;59.17
37298;BME280;30517;51.932;4.278;2023-04-06T05:52:19;101558.91;;;10.35;58.85
37298;BME280;30517;51.932;4.278;2023-04-06T05:54:59;101576.53;;;10.42;58.98
37298;BME280;30517;51.932;4.278;2023-04-06T05:57:40;101539.38;;;10.20;58.73
37298;BME280;30517;51.932;4.278;2023-04-06T06:00:21;101564.19;;;10.36;58.98
37298;BME280;30517;51.932;4.278;2023-04-06T06:03:02;101569.44;;;10.32;58.92
37298;BME280;30517;51.932;4.278;2023-04-06T06:05:46;101556.22;;;10.30;59.42
37298;BME280;30517;51.932;4.278;2023-04-06T06:08:27;101564.16;;;10.32;58.72
37298;BME280;30517;51.932;4.278;2023-04-06T06:11:08;101562.41;;;10.32;58.74
37298;BME280;30517;51.932;4.278;2023-04-06T06:13:49;101572.13;;;10.38;59.21
37298;BME280;30517;51.932;4.278;2023-04-06T06:16:30;101578.28;;;10.40;59.04
37298;BME280;30517;51.932;4.278;2023-04-06T06:19:10;101577.38;;;10.38;59.19
37298;BME280;30517;51.932;4.278;2023-04-06T06:21:51;101565.03;;;10.32;58.75
37298;BME280;30517;51.932;4.278;2023-04-06T06:24:32;101564.19;;;10.35;59.02
37298;BME280;30517;51.932;4.278;2023-04-06T06:27:13;101565.09;;;10.37;58.86
37298;BME280;30517;51.932;4.278;2023-04-06T06:29:54;101540.28;;;10.26;59.01
37298;BME280;30517;51.932;4.278;2023-04-06T06:32:35;101576.47;;;10.36;59.27
37298;BME280;30517;51.932;4.278;2023-04-06T06:35:15;101560.44;;;10.20;59.74
37298;BME280;30517;51.932;4.278;2023-04-06T06:37:56;101579.97;;;10.32;59.88
37298;BME280;30517;51.932;4.278;2023-04-06T06:40:37;101573.84;;;10.34;59.62
37298;BME280;30517;51.932;4.278;2023-04-06T06:43:18;101572.03;;;10.30;60.03
37298;BME280;30517;51.932;4.278;2023-04-06T06:45:59;101565.88;;;10.30;60.05
37298;BME280;30517;51.932;4.278;2023-04-06T06:48:40;101535.00;;;10.23;60.22
37298;BME280;30517;51.932;4.278;2023-04-06T06:51:21;101549.19;;;10.31;60.27
37298;BME280;30517;51.932;4.278;2023-04-06T06:54:01;101535.00;;;10.21;59.81
37298;BME280;30517;51.932;4.278;2023-04-06T06:56:42;101545.66;;;10.30;60.12
37298;BME280;30517;51.932;4.278;2023-04-06T06:59:23;101556.28;;;10.39;59.64
37298;BME280;30517;51.932;4.278;2023-04-06T07:02:04;101543.13;;;10.41;59.92
37298;BME280;30517;51.932;4.278;2023-04-06T07:04:47;101551.00;;;10.39;60.04
37298;BME280;30517;51.932;4.278;2023-04-06T07:07:32;101550.13;;;10.39;59.68
37298;BME280;30517;51.932;4.278;2023-04-06T07:10:13;101542.22;;;10.39;60.13
37298;BME280;30517;51.932;4.278;2023-04-06T07:12:54;101519.19;;;10.26;59.97
37298;BME280;30517;51.932;4.278;2023-04-06T07:15:35;101513.00;;;10.20;59.93
37298;BME280;30517;51.932;4.278;2023-04-06T07:18:18;101507.75;;;10.22;59.75
37298;BME280;30517;51.932;4.278;2023-04-06T07:20:59;101519.28;;;10.27;59.86
37298;BME280;30517;51.932;4.278;2023-04-06T07:23:39;101533.44;;;10.37;59.69
37298;BME280;30517;51.932;4.278;2023-04-06T07:26:20;101518.41;;;10.30;59.65
37298;BME280;30517;51.932;4.278;2023-04-06T07:29:01;101532.59;;;10.41;59.66
37298;BME280;30517;51.932;4.278;2023-04-06T07:31:42;101526.44;;;10.42;59.76
37298;BME280;30517;51.932;4.278;2023-04-06T07:34:23;101531.69;;;10.42;59.80
37298;BME280;30517;51.932;4.278;2023-04-06T07:37:03;101536.13;;;10.43;59.84
37298;BME280;30517;51.932;4.278;2023-04-06T07:39:44;101510.50;;;10.31;59.91
37298;BME280;30517;51.932;4.278;2023-04-06T07:42:25;101529.94;;;10.41;60.14
37298;BME280;30517;51.932;4.278;2023-04-06T07:45:06;101503.44;;;10.29;60.07
37298;BME280;30517;51.932;4.278;2023-04-06T07:47:47;101537.03;;;10.45;60.05
37298;BME280;30517;51.932;4.278;2023-04-06T07:50:28;101529.06;;;10.42;60.02
37298;BME280;30517;51.932;4.278;2023-04-06T07:53:09;101526.44;;;10.42;60.46
37298;BME280;30517;51.932;4.278;2023-04-06T07:55:50;101525.53;;;10.41;60.16
37298;BME280;30517;51.932;4.278;2023-04-06T07:58:31;101536.13;;;10.45;60.33
37298;BME280;30517;51.932;4.278;2023-04-06T08:01:12;101503.44;;;10.29;60.34
37298;BME280;30517;51.932;4.278;2023-04-06T08:03:53;101350.50;;;9.33;60.13
37298;BME280;30517;51.932;4.278;2023-04-06T08:06:35;101526.44;;;10.40;60.43
37298;BME280;30517;51.932;4.278;2023-04-06T08:09:16;101510.53;;;10.33;60.22
37298;BME280;30517;51.932;4.278;2023-04-06T08:11:57;101514.91;;;10.34;60.11
37298;BME280;30517;51.932;4.278;2023-04-06T08:14:38;101531.75;;;10.45;60.38
37298;BME280;30517;51.932;4.278;2023-04-06T08:17:19;101529.97;;;10.43;60.42
37298;BME280;30517;51.932;4.278;2023-04-06T08:20:00;101507.81;;;10.27;60.35
37298;BME280;30517;51.932;4.278;2023-04-06T08:22:43;101532.63;;;10.47;60.13
37298;BME280;30517;51.932;4.278;2023-04-06T08:25:23;101531.78;;;10.50;60.30
37298;BME280;30517;51.932;4.278;2023-04-06T08:28:04;101530.91;;;10.49;60.19
37298;BME280;30517;51.932;4.278;2023-04-06T08:30:45;101531.78;;;10.48;60.23
37298;BME280;30517;51.932;4.278;2023-04-06T08:33:26;101520.31;;;10.43;60.24
37298;BME280;30517;51.932;4.278;2023-04-06T08:36:12;101536.19;;;10.51;60.25
37298;BME280;30517;51.932;4.278;2023-04-06T08:38:53;101523.88;;;10.51;60.30
37298;BME280;30517;51.932;4.278;2023-04-06T08:41:34;101525.66;;;10.51;59.94
37298;BME280;30517;51.932;4.278;2023-04-06T08:44:16;101450.53;;;10.10;60.50
37298;BME280;30517;51.932;4.278;2023-04-06T08:46:57;101502.69;;;10.42;60.07
37298;BME280;30517;51.932;4.278;2023-04-06T08:49:40;101516.88;;;10.53;60.62
37298;BME280;30517;51.932;4.278;2023-04-06T08:52:21;101500.09;;;10.47;60.42
37298;BME280;30517;51.932;4.278;2023-04-06T08:55:02;101489.47;;;10.39;59.89
37298;BME280;30517;51.932;4.278;2023-04-06T08:57:43;101497.41;;;10.42;60.41
37298;BME280;30517;51.932;4.278;2023-04-06T09:00:27;101516.88;;;10.53;60.15
37298;BME280;30517;51.932;4.278;2023-04-06T09:03:12;101507.13;;;10.46;60.31
37298;BME280;30517;51.932;4.278;2023-04-06T09:05:53;101500.09;;;10.47;60.05
37298;BME280;30517;51.932;4.278;2023-04-06T09:08:39;101516.00;;;10.54;60.47
37298;BME280;30517;51.932;4.278;2023-04-06T09:11:20;101476.28;;;10.39;60.19
37298;BME280;30517;51.932;4.278;2023-04-06T09:14:01;101501.00;;;10.50;60.09
37298;BME280;30517;51.932;4.278;2023-04-06T09:16:45;101509.00;;;10.56;60.37
37298;BME280;30517;51.932;4.278;2023-04-06T09:19:26;101510.75;;;10.57;60.05
37298;BME280;30517;51.932;4.278;2023-04-06T09:22:07;101512.47;;;10.55;60.61
37298;BME280;30517;51.932;4.278;2023-04-06T09:24:50;101499.28;;;10.55;60.50
37298;BME280;30517;51.932;4.278;2023-04-06T09:27:32;101507.22;;;10.54;60.18
37298;BME280;30517;51.932;4.278;2023-04-06T09:30:14;101511.63;;;10.58;60.37
37298;BME280;30517;51.932;4.278;2023-04-06T09:32:57;101506.34;;;10.56;60.24
37298;BME280;30517;51.932;4.278;2023-04-06T09:35:39;101497.53;;;10.54;60.42
37298;BME280;30517;51.932;4.278;2023-04-06T09:38:20;101487.81;;;10.49;60.40
37298;BME280;30517;51.932;4.278;2023-04-06T09:41:00;101499.31;;;10.58;60.46
37298;BME280;30517;51.932;4.278;2023-04-06T09:43:41;101496.66;;;10.58;60.20
37298;BME280;30517;51.932;4.278;2023-04-06T09:46:22;101472.88;;;10.48;60.24
37298;BME280;30517;51.932;4.278;2023-04-06T09:49:04;101473.72;;;10.47;60.11
37298;BME280;30517;51.932;4.278;2023-04-06T09:51:49;101448.16;;;10.35;60.17
37298;BME280;30517;51.932;4.278;2023-04-06T09:54:34;101495.81;;;10.59;60.34
37298;BME280;30517;51.932;4.278;2023-04-06T09:57:29;101491.41;;;10.60;60.43
37298;BME280;30517;51.932;4.278;2023-04-06T10:00:13;101475.56;;;10.57;60.44
37298;BME280;30517;51.932;4.278;2023-04-06T10:06:11;101476.47;;;10.60;60.35
37298;BME280;30517;51.932;4.278;2023-04-06T10:08:52;101479.97;;;10.61;60.79
37298;BME280;30517;51.932;4.278;2023-04-06T10:11:35;101469.47;;;10.62;60.45
37298;BME280;30517;51.932;4.278;2023-04-06T10:14:16;101466.81;;;10.62;60.33
37298;BME280;30517;51.932;4.278;2023-04-06T10:16:57;101470.34;;;10.63;60.46
37298;BME280;30517;51.932;4.278;2023-04-06T10:19:49;101474.75;;;10.64;60.78
37298;BME280;30517;51.932;4.278;2023-04-06T10:22:49;101465.09;;;10.68;60.69
37298;BME280;30517;51.932;4.278;2023-04-06T10:25:34;101447.50;;;10.65;60.72
37298;BME280;30517;51.932;4.278;2023-04-06T10:28:15;101439.47;;;10.51;62.39
37298;BME280;30517;51.932;4.278;2023-04-06T10:31:01;101423.56;;;10.40;62.37
37298;BME280;30517;51.932;4.278;2023-04-06T10:33:53;101457.16;;;10.63;62.14
37298;BME280;30517;51.932;4.278;2023-04-06T10:36:35;101460.69;;;10.68;62.30
37298;BME280;30517;51.932;4.278;2023-04-06T10:39:24;101460.72;;;10.70;62.27
37298;BME280;30517;51.932;4.278;2023-04-06T10:42:06;101454.59;;;10.72;62.15
37298;BME280;30517;51.932;4.278;2023-04-06T10:44:49;101424.59;;;10.61;61.78
37298;BME280;30517;51.932;4.278;2023-04-06T10:47:39;101419.28;;;10.58;62.05
37298;BME280;30517;51.932;4.278;2023-04-06T10:50:21;101446.66;;;10.74;61.57
37298;BME280;30517;51.932;4.278;2023-04-06T10:53:02;101430.81;;;10.71;61.58
37298;BME280;30517;51.932;4.278;2023-04-06T10:55:43;101437.00;;;10.76;61.50
37298;BME280;30517;51.932;4.278;2023-04-06T10:58:26;101438.78;;;10.75;61.92
37298;BME280;30517;51.932;4.278;2023-04-06T11:01:10;101436.13;;;10.77;62.10
37298;BME280;30517;51.932;4.278;2023-04-06T11:03:54;101423.78;;;10.70;61.13
37298;BME280;30517;51.932;4.278;2023-04-06T11:06:35;101400.00;;;10.62;61.52
37298;BME280;30517;51.932;4.278;2023-04-06T11:09:27;101418.53;;;10.77;61.27
37298;BME280;30517;51.932;4.278;2023-04-06T11:12:08;101429.97;;;10.73;61.40
37298;BME280;30517;51.932;4.278;2023-04-06T11:14:56;101423.84;;;10.79;61.32
37298;BME280;30517;51.932;4.278;2023-04-06T11:17:44;101400.91;;;10.72;61.18
37298;BME280;30517;51.932;4.278;2023-04-06T11:20:25;101369.13;;;10.50;61.39
37298;BME280;30517;51.932;4.278;2023-04-06T11:23:06;101419.44;;;10.81;61.57
37298;BME280;30517;51.932;4.278;2023-04-06T11:25:51;101410.66;;;10.82;61.56
37298;BME280;30517;51.932;4.278;2023-04-06T11:28:32;101382.44;;;10.67;61.75
37298;BME280;30517;51.932;4.278;2023-04-06T11:31:13;101406.22;;;10.75;61.46
37298;BME280;30517;51.932;4.278;2023-04-06T11:33:57;101390.34;;;10.69;61.70
37298;BME280;30517;51.932;4.278;2023-04-06T11:36:43;101393.88;;;10.71;61.48
37298;BME280;30517;51.932;4.278;2023-04-06T11:39:25;101381.53;;;10.68;61.26
37298;BME280;30517;51.932;4.278;2023-04-06T11:42:06;101386.00;;;10.77;61.41
37298;BME280;30517;51.932;4.278;2023-04-06T11:44:50;101372.78;;;10.71;61.89
37298;BME280;30517;51.932;4.278;2023-04-06T11:47:35;101361.25;;;10.53;61.17
37298;BME280;30517;51.932;4.278;2023-04-06T11:50:15;101355.09;;;10.57;61.83
37298;BME280;30517;51.932;4.278;2023-04-06T11:53:01;101360.44;;;10.67;61.42
37298;BME280;30517;51.932;4.278;2023-04-06T11:55:42;101374.56;;;10.75;61.31
37298;BME280;30517;51.932;4.278;2023-04-06T11:58:27;101294.25;;;10.28;61.84
37298;BME280;30517;51.932;4.278;2023-04-06T12:01:08;101396.59;;;10.88;61.54
37298;BME280;30517;51.932;4.278;2023-04-06T12:03:49;101390.47;;;10.89;61.29
37298;BME280;30517;51.932;4.278;2023-04-06T12:06:30;101384.28;;;10.80;61.47
37298;BME280;30517;51.932;4.278;2023-04-06T12:09:11;101392.19;;;10.88;61.73
37298;BME280;30517;51.932;4.278;2023-04-06T12:11:52;101334.94;;;10.69;61.23
37298;BME280;30517;51.932;4.278;2023-04-06T12:14:33;101384.28;;;10.88;61.45
37298;BME280;30517;51.932;4.278;2023-04-06T12:17:13;101282.91;;;10.37;61.62
37298;BME280;30517;51.932;4.278;2023-04-06T12:19:54;101353.47;;;10.78;61.51
37298;BME280;30517;51.932;4.278;2023-04-06T12:22:35;101379.00;;;10.87;61.34
37298;BME280;30517;51.932;4.278;2023-04-06T12:25:16;101368.47;;;10.90;61.38
37298;BME280;30517;51.932;4.278;2023-04-06T12:27:57;101371.13;;;10.91;61.25
37298;BME280;30517;51.932;4.278;2023-04-06T12:30:38;101347.28;;;10.77;61.36
37298;BME280;30517;51.932;4.278;2023-04-06T12:33:20;101358.78;;;10.84;61.51
37298;BME280;30517;51.932;4.278;2023-04-06T12:36:01;101358.78;;;10.90;61.82
37298;BME280;30517;51.932;4.278;2023-04-06T12:38:42;101278.50;;;10.34;61.44
37298;BME280;30517;51.932;4.278;2023-04-06T12:41:25;101346.47;;;10.86;61.26
37298;BME280;30517;51.932;4.278;2023-04-06T12:44:06;101358.81;;;10.93;61.59
37298;BME280;30517;51.932;4.278;2023-04-06T12:46:47;101355.31;;;10.94;61.61
37298;BME280;30517;51.932;4.278;2023-04-06T12:49:28;101336.72;;;10.77;61.66
37298;BME280;30517;51.932;4.278;2023-04-06T12:52:09;101356.16;;;10.93;61.62
37298;BME280;30517;51.932;4.278;2023-04-06T12:54:50;101350.91;;;10.95;61.68
37298;BME280;30517;51.932;4.278;2023-04-06T12:57:31;101327.97;;;10.81;61.64
37298;BME280;30517;51.932;4.278;2023-04-06T13:00:12;101336.78;;;10.88;61.50
37298;BME280;30517;51.932;4.278;2023-04-06T13:02:54;101328.00;;;10.89;61.90
37298;BME280;30517;51.932;4.278;2023-04-06T13:05:35;101301.47;;;10.58;62.25
37298;BME280;30517;51.932;4.278;2023-04-06T13:08:18;101320.03;;;10.72;63.11
37298;BME280;30517;51.932;4.278;2023-04-06T13:11:00;101327.94;;;10.80;62.19
37298;BME280;30517;51.932;4.278;2023-04-06T13:13:40;101342.09;;;10.94;62.59
37298;BME280;30517;51.932;4.278;2023-04-06T13:16:21;101336.81;;;10.96;62.70
37298;BME280;30517;51.932;4.278;2023-04-06T13:19:02;101311.25;;;10.78;62.56
37298;BME280;30517;51.932;4.278;2023-04-06T13:21:43;101290.97;;;10.71;62.71
37298;BME280;30517;51.932;4.278;2023-04-06T13:24:24;101341.22;;;10.98;62.90
37298;BME280;30517;51.932;4.278;2023-04-06T13:27:05;101319.22;;;10.89;63.27
37298;BME280;30517;51.932;4.278;2023-04-06T13:29:46;101237.19;;;10.39;62.54
37298;BME280;30517;51.932;4.278;2023-04-06T13:32:26;101326.25;;;10.91;63.35
37298;BME280;30517;51.932;4.278;2023-04-06T13:35:08;101313.00;;;10.85;63.04
37298;BME280;30517;51.932;4.278;2023-04-06T13:37:49;101306.84;;;10.81;63.27
37298;BME280;30517;51.932;4.278;2023-04-06T13:40:32;101334.19;;;11.00;62.65
37298;BME280;30517;51.932;4.278;2023-04-06T13:43:13;101310.38;;;10.88;62.99
37298;BME280;30517;51.932;4.278;2023-04-06T13:45:55;101279.56;;;10.70;62.14
37298;BME280;30517;51.932;4.278;2023-04-06T13:48:37;101333.34;;;11.03;62.58
37298;BME280;30517;51.932;4.278;2023-04-06T13:51:18;101312.16;;;10.91;62.81
37298;BME280;30517;51.932;4.278;2023-04-06T13:53:59;101268.97;;;10.69;62.57
37298;BME280;30517;51.932;4.278;2023-04-06T13:56:42;101269.00;;;10.70;61.94
37298;BME280;30517;51.932;4.278;2023-04-06T13:59:23;101329.81;;;11.04;62.24
37298;BME280;30517;51.932;4.278;2023-04-06T14:02:06;101314.88;;;11.04;62.58
37298;BME280;30517;51.932;4.278;2023-04-06T14:04:48;101324.53;;;11.04;62.77
37298;BME280;30517;51.932;4.278;2023-04-06T14:07:29;101316.63;;;11.08;62.65
37298;BME280;30517;51.932;4.278;2023-04-06T14:10:10;101322.81;;;11.07;62.37